CheckWX is a tool to help pilots better visualize weather data.  It is not intended as a substitute for an official pre-flight weather briefing.

12:27:32 UTC

LBGO TAF
Gorna Oryahovitsa Airport
Gorna Oryahovitsa, Bulgaria
TAF LBGO 221100Z 2212/2312 VRB04KT 9999 SCT040 TEMPO 2302/2306 5000 BR BKN040 BECMG 2309/2311 34010KT

Mar-22@
12:00 UTC

Mar-22 @ 12:00 UTC

Mar-23@
09:00 UTC

Mar-23 @ 09:00 UTC

TAF LBGO 221100Z 2212/2312 VRB04KT 9999 SCT040
Wind
  • Variable at 4 KTS
Cloud Levels
  • Scattered at 4,000' AGL

Mar-23@
02:00 UTC

Mar-23 @ 02:00 UTC

Mar-23@
06:00 UTC

Mar-23 @ 06:00 UTC

TEMPO 2302/2306 5000 BR BKN040

Temporary

Temporary Changes expected for less than half the time period

Conditions
Mist
Cloud Levels
  • Broken at 4,000' AGL

Mar-23@
09:00 UTC

Mar-23 @ 09:00 UTC

Mar-23@
12:00 UTC

Mar-23 @ 12:00 UTC

BECMG 2309/2311 34010KT

Becoming

Becoming Conditions expected by Sat, Mar 23, 2019 @ 11:00 UTC

Wind
  • 340° at 10 KTS
Cloud Levels
  • Scattered at 4,000' AGL